createdAt,value
2023-03-29T00:00:35.916Z,2.14
2023-03-29T00:01:42.098Z,2.13
2023-03-29T00:02:48.582Z,2.17
2023-03-29T00:03:52.011Z,2.16
2023-03-29T00:04:53.697Z,2.09
2023-03-29T00:06:03.244Z,2.10
2023-03-29T00:07:05.035Z,2.09
2023-03-29T00:08:07.507Z,2.09
2023-03-29T00:09:10.176Z,2.07
2023-03-29T00:10:12.279Z,2.07
2023-03-29T00:11:13.872Z,2.09
2023-03-29T00:12:15.528Z,2.03
2023-03-29T00:13:17.126Z,2.03
2023-03-29T00:14:18.706Z,2.06
2023-03-29T00:15:20.649Z,1.97
2023-03-29T00:16:23.124Z,2.02
2023-03-29T00:17:24.826Z,1.97
2023-03-29T00:18:26.578Z,1.99
2023-03-29T00:19:29.031Z,1.97
2023-03-29T00:20:30.799Z,1.87
2023-03-29T00:21:32.467Z,1.89
2023-03-29T00:22:34.203Z,1.93
2023-03-29T00:23:35.791Z,1.90
2023-03-29T00:24:37.470Z,1.76
2023-03-29T00:25:44.846Z,1.83
2023-03-29T00:26:46.465Z,1.87
2023-03-29T00:27:48.143Z,1.83
2023-03-29T00:28:50.126Z,1.86
2023-03-29T00:29:51.787Z,1.89
2023-03-29T00:30:53.576Z,1.83
2023-03-29T00:31:56.081Z,1.83
2023-03-29T00:32:57.796Z,1.63
2023-03-29T00:33:59.470Z,1.63
2023-03-29T00:35:01.166Z,1.65
2023-03-29T00:36:04.501Z,1.54
2023-03-29T00:37:08.834Z,1.46
2023-03-29T00:38:10.821Z,1.39
2023-03-29T00:39:12.434Z,1.36
2023-03-29T00:40:15.764Z,1.30
2023-03-29T00:41:17.409Z,1.18
2023-03-29T00:42:19.020Z,1.04
2023-03-29T00:43:20.719Z,0.97
2023-03-29T00:44:59.581Z,0.84
2023-03-29T00:46:01.246Z,0.79
2023-03-29T00:47:02.945Z,0.70
2023-03-29T00:48:11.361Z,0.63
2023-03-29T00:49:13.632Z,0.56
2023-03-29T00:50:29.825Z,0.52
2023-03-29T00:51:33.071Z,0.46
2023-03-29T00:52:34.824Z,0.48
2023-03-29T00:53:38.553Z,0.45
2023-03-29T00:54:41.173Z,0.38
2023-03-29T00:56:14.177Z,0.33
2023-03-29T00:57:16.220Z,0.26
2023-03-29T00:58:20.449Z,0.23
2023-03-29T00:59:25.524Z,0.15
2023-03-29T01:00:31.841Z,0.09
2023-03-29T01:01:38.304Z,0.10
2023-03-29T01:02:40.736Z,0.12
2023-03-29T01:03:46.574Z,0.13
2023-03-29T01:05:08.526Z,0.19
2023-03-29T01:06:10.121Z,0.20
2023-03-29T01:07:31.210Z,0.16
2023-03-29T01:08:35.943Z,0.09
2023-03-29T01:09:37.910Z,0.10
2023-03-29T01:10:41.807Z,0.08
2023-03-29T01:11:48.875Z,0.01
2023-03-29T01:12:56.963Z,-0.05
2023-03-29T01:14:02.679Z,-0.12
2023-03-29T01:15:10.347Z,-0.18
2023-03-29T01:16:12.014Z,-0.13
2023-03-29T01:17:13.634Z,-0.03
2023-03-29T01:18:15.287Z,0.02
2023-03-29T01:19:19.065Z,0.08
2023-03-29T01:21:03.474Z,0.16
2023-03-29T01:22:14.813Z,0.20
2023-03-29T01:23:31.628Z,0.22
2023-03-29T01:24:38.276Z,0.16
2023-03-29T01:26:07.179Z,0.22
2023-03-29T01:27:38.500Z,0.23
2023-03-29T01:29:24.653Z,0.19
2023-03-29T01:30:53.141Z,0.19
2023-03-29T01:32:09.000Z,0.10
2023-03-29T01:33:14.142Z,0.26
2023-03-29T01:34:33.387Z,0.32
2023-03-29T01:35:37.393Z,0.38
2023-03-29T01:36:44.916Z,0.35
2023-03-29T01:37:53.207Z,0.43
2023-03-29T01:38:58.782Z,0.45
2023-03-29T01:40:00.697Z,0.43
2023-03-29T01:41:03.907Z,0.52
2023-03-29T01:42:29.965Z,0.57
2023-03-29T01:43:34.840Z,0.46
2023-03-29T01:44:57.642Z,0.48
2023-03-29T01:46:20.992Z,0.48
2023-03-29T01:47:40.923Z,0.48
2023-03-29T01:48:51.010Z,0.54
2023-03-29T01:49:52.576Z,0.52
2023-03-29T01:51:04.592Z,0.50
2023-03-29T01:52:26.910Z,0.49
2023-03-29T01:53:29.750Z,0.54
2023-03-29T01:54:56.911Z,0.54
2023-03-29T01:56:14.575Z,0.49
2023-03-29T01:57:16.301Z,0.50
2023-03-29T01:58:17.965Z,0.39
2023-03-29T01:59:28.497Z,0.43
2023-03-29T02:00:30.116Z,0.46
2023-03-29T02:01:34.946Z,0.46
2023-03-29T02:02:40.413Z,0.43
2023-03-29T02:03:43.013Z,0.45
2023-03-29T02:04:50.141Z,0.43
2023-03-29T02:05:52.605Z,0.48
2023-03-29T02:06:54.425Z,0.40
2023-03-29T02:07:57.545Z,0.49
2023-03-29T02:08:59.272Z,0.48
2023-03-29T02:10:00.971Z,0.52
2023-03-29T02:11:02.818Z,0.50
2023-03-29T02:12:04.716Z,0.45
2023-03-29T02:13:06.380Z,0.42
2023-03-29T02:14:08.089Z,0.39
2023-03-29T02:15:14.354Z,0.43
2023-03-29T02:16:15.992Z,0.39
2023-03-29T02:17:22.435Z,0.39
2023-03-29T02:18:24.792Z,0.39
2023-03-29T02:19:28.025Z,0.45
2023-03-29T02:20:32.032Z,0.35
2023-03-29T02:21:51.852Z,0.32
2023-03-29T02:23:04.639Z,0.32
2023-03-29T02:24:07.557Z,0.28
2023-03-29T02:25:09.534Z,0.26
2023-03-29T02:26:11.198Z,0.29
2023-03-29T02:27:12.803Z,0.19
2023-03-29T02:28:14.561Z,0.26
2023-03-29T02:29:16.364Z,0.20
2023-03-29T02:30:18.817Z,0.16
2023-03-29T02:31:25.039Z,0.10
2023-03-29T02:32:31.127Z,0.10
2023-03-29T02:33:45.567Z,0.05
2023-03-29T02:34:56.532Z,0.02
2023-03-29T02:36:29.548Z,-0.01
2023-03-29T02:37:31.218Z,-0.03
2023-03-29T02:38:32.850Z,-0.09
2023-03-29T02:39:34.743Z,-0.11
2023-03-29T02:40:37.649Z,-0.19
2023-03-29T02:41:39.384Z,-0.28
2023-03-29T02:42:41.588Z,-0.26
2023-03-29T02:43:43.397Z,-0.25
2023-03-29T02:44:45.160Z,-0.30
2023-03-29T02:45:47.177Z,-0.25
2023-03-29T02:46:53.676Z,-0.29
2023-03-29T02:47:56.971Z,-0.39
2023-03-29T02:48:58.714Z,-0.34
2023-03-29T02:50:00.455Z,-0.33
2023-03-29T02:51:03.767Z,-0.53
2023-03-29T02:52:08.997Z,-0.44
2023-03-29T02:53:16.317Z,-0.34
2023-03-29T02:54:19.595Z,-0.34
2023-03-29T02:55:22.743Z,-0.42
2023-03-29T02:56:24.363Z,-0.36
2023-03-29T02:57:26.928Z,-0.29
2023-03-29T02:58:28.972Z,-0.37
2023-03-29T02:59:30.595Z,-0.34
2023-03-29T03:00:32.380Z,-0.32
2023-03-29T03:01:34.000Z,-0.32
2023-03-29T03:02:36.337Z,-0.36
2023-03-29T03:03:38.348Z,-0.28
2023-03-29T03:04:40.147Z,-0.29
2023-03-29T03:05:41.872Z,-0.28
2023-03-29T03:06:43.478Z,-0.37
2023-03-29T03:07:46.206Z,-0.33
2023-03-29T03:08:48.430Z,-0.28
2023-03-29T03:09:50.183Z,-0.21
2023-03-29T03:10:52.593Z,-0.22
2023-03-29T03:11:54.177Z,-0.23
2023-03-29T03:12:56.089Z,-0.18
2023-03-29T03:13:57.741Z,-0.15
2023-03-29T03:14:59.642Z,-0.22
2023-03-29T03:16:01.344Z,-0.26
2023-03-29T03:17:04.742Z,-0.40
2023-03-29T03:18:06.649Z,-0.43
2023-03-29T03:19:09.247Z,-0.43
2023-03-29T03:20:14.485Z,-0.36
2023-03-29T03:21:16.087Z,-0.32
2023-03-29T03:22:17.688Z,-0.32
2023-03-29T03:23:19.303Z,-0.34
2023-03-29T03:24:20.938Z,-0.53
2023-03-29T03:25:22.585Z,-0.56
2023-03-29T03:26:25.017Z,-0.57
2023-03-29T03:27:27.073Z,-0.64
2023-03-29T03:28:28.693Z,-0.64
2023-03-29T03:29:30.366Z,-0.72
2023-03-29T03:30:32.018Z,-0.79
2023-03-29T03:31:33.732Z,-0.79
2023-03-29T03:32:35.939Z,-0.79
2023-03-29T03:33:37.574Z,-0.81
2023-03-29T03:34:39.238Z,-0.79
2023-03-29T03:35:41.020Z,-0.79
2023-03-29T03:36:42.701Z,-0.77
2023-03-29T03:37:44.316Z,-0.76
2023-03-29T03:38:46.252Z,-0.87
2023-03-29T03:39:47.939Z,-0.80
2023-03-29T03:40:56.316Z,-0.80
2023-03-29T03:41:57.977Z,-0.87
2023-03-29T03:42:59.560Z,-0.81
2023-03-29T03:44:01.800Z,-0.72
2023-03-29T03:45:03.615Z,-0.66
2023-03-29T03:46:05.563Z,-0.66
2023-03-29T03:47:07.939Z,-0.57
2023-03-29T03:48:09.813Z,-0.60
2023-03-29T03:49:12.174Z,-0.70
2023-03-29T03:50:13.945Z,-0.66
2023-03-29T03:51:15.624Z,-0.62
2023-03-29T03:52:18.363Z,-0.59
2023-03-29T03:53:20.145Z,-0.60
2023-03-29T03:54:21.781Z,-0.57
2023-03-29T03:55:24.084Z,-0.56
2023-03-29T03:56:25.915Z,-0.54
2023-03-29T03:57:27.590Z,-0.52
2023-03-29T03:58:29.231Z,-0.50
2023-03-29T03:59:30.823Z,-0.39
2023-03-29T04:00:33.442Z,-0.37
2023-03-29T04:01:35.664Z,-0.40
2023-03-29T04:02:37.847Z,-0.39
2023-03-29T04:03:39.578Z,-0.48
2023-03-29T04:04:41.438Z,-0.39
2023-03-29T04:05:44.645Z,-0.33
2023-03-29T04:06:46.291Z,-0.39
2023-03-29T04:07:48.045Z,-0.46
2023-03-29T04:08:49.682Z,-0.42
2023-03-29T04:09:53.021Z,-0.42
2023-03-29T04:10:55.521Z,-0.48
2023-03-29T04:11:57.834Z,-0.40
2023-03-29T04:13:02.420Z,-0.39
2023-03-29T04:14:04.477Z,-0.36
2023-03-29T04:15:06.806Z,-0.28
2023-03-29T04:16:08.504Z,-0.30
2023-03-29T04:17:10.188Z,-0.29
2023-03-29T04:18:12.471Z,-0.25
2023-03-29T04:19:14.413Z,-0.30
2023-03-29T04:20:16.672Z,-0.22
2023-03-29T04:21:20.685Z,-0.21
2023-03-29T04:22:24.081Z,-0.25
2023-03-29T04:23:25.693Z,-0.29
2023-03-29T04:24:27.452Z,-0.25
2023-03-29T04:25:29.716Z,-0.21
2023-03-29T04:26:31.304Z,-0.15
2023-03-29T04:27:33.017Z,-0.06
2023-03-29T04:28:35.363Z,-0.01
2023-03-29T04:29:37.108Z,0.03
2023-03-29T04:30:38.790Z,0.06
2023-03-29T04:31:40.464Z,0.10
2023-03-29T04:32:42.900Z,0.06
2023-03-29T04:33:46.855Z,0.08
2023-03-29T04:34:48.532Z,0.10
2023-03-29T04:35:50.163Z,-0.03
2023-03-29T04:36:51.811Z,-0.05
2023-03-29T04:37:54.690Z,0.02
2023-03-29T04:38:56.340Z,-0.08
2023-03-29T04:40:00.418Z,-0.08
2023-03-29T04:41:04.927Z,-0.08
2023-03-29T04:42:06.623Z,-0.01
2023-03-29T04:43:08.206Z,0.18
2023-03-29T04:44:09.819Z,0.36
2023-03-29T04:45:14.091Z,0.50
2023-03-29T04:46:15.956Z,0.71
2023-03-29T04:47:18.273Z,0.84
2023-03-29T04:48:20.027Z,1.14
2023-03-29T04:49:22.939Z,1.51
2023-03-29T04:50:25.550Z,2.00
2023-03-29T04:51:27.535Z,2.41
2023-03-29T04:52:33.123Z,2.77
2023-03-29T04:53:34.869Z,2.89
2023-03-29T04:54:37.441Z,3.06
2023-03-29T04:55:39.069Z,3.30
2023-03-29T04:56:40.779Z,3.44
2023-03-29T04:57:44.696Z,3.57
2023-03-29T04:58:46.286Z,3.53
2023-03-29T04:59:47.932Z,3.47
2023-03-29T05:00:49.625Z,3.23
2023-03-29T05:01:51.729Z,3.02
2023-03-29T05:02:53.756Z,2.88
2023-03-29T05:03:55.375Z,2.72
2023-03-29T05:04:57.070Z,2.48
2023-03-29T05:06:07.082Z,2.34
2023-03-29T05:07:09.008Z,2.23
2023-03-29T05:08:10.735Z,2.05
2023-03-29T05:09:12.339Z,1.90
2023-03-29T05:10:15.021Z,1.82
2023-03-29T05:11:16.709Z,1.76
2023-03-29T05:12:18.369Z,1.67
2023-03-29T05:13:19.958Z,1.62
2023-03-29T05:14:21.761Z,1.60
2023-03-29T05:15:23.441Z,1.59
2023-03-29T05:16:26.485Z,1.59
2023-03-29T05:17:28.182Z,1.59
2023-03-29T05:18:30.143Z,1.56
2023-03-29T05:19:32.046Z,1.54
2023-03-29T05:20:33.677Z,1.49
2023-03-29T05:21:35.740Z,1.52
2023-03-29T05:22:38.416Z,1.54
2023-03-29T05:23:40.088Z,1.59
2023-03-29T05:24:42.170Z,1.67
2023-03-29T05:25:44.024Z,1.76
2023-03-29T05:26:47.674Z,1.76
2023-03-29T05:27:49.276Z,1.79
2023-03-29T05:28:51.554Z,1.80
2023-03-29T05:29:53.160Z,1.79
2023-03-29T05:31:01.788Z,1.83
2023-03-29T05:32:03.810Z,1.89
2023-03-29T05:33:05.901Z,1.90
2023-03-29T05:34:07.563Z,1.92
2023-03-29T05:35:09.596Z,1.90
2023-03-29T05:36:13.693Z,1.95
2023-03-29T05:37:15.409Z,1.97
2023-03-29T05:38:17.927Z,1.92
2023-03-29T05:39:19.516Z,1.87
2023-03-29T05:40:21.240Z,1.89
2023-03-29T05:41:23.944Z,1.89
2023-03-29T05:42:25.527Z,1.82
2023-03-29T05:43:27.511Z,1.76
2023-03-29T05:44:29.101Z,1.79
2023-03-29T05:45:32.604Z,1.86
2023-03-29T05:46:34.664Z,1.90
2023-03-29T05:47:36.993Z,1.92
2023-03-29T05:48:38.715Z,1.99
2023-03-29T05:49:40.337Z,1.96
2023-03-29T05:50:43.809Z,2.00
2023-03-29T05:51:46.682Z,2.02
2023-03-29T05:52:48.304Z,2.05
2023-03-29T05:53:51.363Z,1.96
2023-03-29T05:54:52.961Z,1.95
2023-03-29T05:55:54.752Z,1.92
2023-03-29T05:56:56.374Z,1.85
2023-03-29T05:57:57.962Z,1.85
2023-03-29T05:58:59.578Z,1.82
2023-03-29T06:00:02.158Z,1.80
2023-03-29T06:01:05.218Z,1.85
2023-03-29T06:02:07.209Z,1.90
2023-03-29T06:03:20.801Z,2.02
2023-03-29T06:04:24.541Z,2.02
2023-03-29T06:05:26.632Z,2.07
2023-03-29T06:06:28.311Z,2.09
2023-03-29T06:07:29.918Z,2.24
2023-03-29T06:08:32.308Z,2.23
2023-03-29T06:09:33.995Z,2.33
2023-03-29T06:10:37.239Z,2.47
2023-03-29T06:11:39.328Z,2.54
2023-03-29T06:12:41.012Z,2.58
2023-03-29T06:13:42.612Z,2.58
2023-03-29T06:14:45.691Z,2.58
2023-03-29T06:15:47.329Z,2.51
2023-03-29T06:16:49.102Z,2.52
2023-03-29T06:17:50.859Z,2.65
2023-03-29T06:18:53.342Z,2.74
2023-03-29T06:19:55.023Z,2.82
2023-03-29T06:20:56.637Z,2.98
2023-03-29T06:21:58.299Z,3.08
2023-03-29T06:22:59.960Z,3.08
2023-03-29T06:24:01.560Z,3.08
2023-03-29T06:25:04.311Z,3.18
2023-03-29T06:26:06.350Z,3.32
2023-03-29T06:27:08.020Z,3.39
2023-03-29T06:28:09.676Z,3.42
2023-03-29T06:29:11.358Z,3.52
2023-03-29T06:30:15.540Z,3.46
2023-03-29T06:31:17.321Z,3.60
2023-03-29T06:32:19.025Z,3.71
2023-03-29T06:33:20.665Z,3.73
2023-03-29T06:34:22.520Z,3.83
2023-03-29T06:35:24.166Z,3.93
2023-03-29T06:36:25.971Z,3.97
2023-03-29T06:37:27.640Z,4.06
2023-03-29T06:38:29.327Z,3.98
2023-03-29T06:39:31.342Z,4.09
2023-03-29T06:40:33.512Z,4.06
2023-03-29T06:41:35.170Z,4.02
2023-03-29T06:42:36.998Z,3.95
2023-03-29T06:43:38.840Z,3.91
2023-03-29T06:44:40.543Z,3.83
2023-03-29T06:45:42.734Z,3.75
2023-03-29T06:46:44.432Z,3.64
2023-03-29T06:47:46.371Z,3.59
2023-03-29T06:48:48.367Z,3.52
2023-03-29T06:49:50.035Z,3.52
2023-03-29T06:50:52.356Z,3.52
2023-03-29T06:51:54.102Z,3.54
2023-03-29T06:52:56.440Z,3.49
2023-03-29T06:53:58.088Z,3.37
2023-03-29T06:55:02.120Z,3.52
2023-03-29T06:56:09.188Z,3.53
2023-03-29T06:57:13.326Z,3.64
2023-03-29T06:58:15.500Z,3.70
2023-03-29T06:59:17.824Z,3.80
2023-03-29T07:00:27.856Z,3.85
2023-03-29T07:01:29.661Z,3.84
2023-03-29T07:02:31.884Z,3.91
2023-03-29T07:03:35.382Z,3.91
2023-03-29T07:04:37.089Z,3.93
2023-03-29T07:05:42.111Z,3.91
2023-03-29T07:06:48.430Z,3.88
2023-03-29T07:07:55.946Z,3.90
2023-03-29T07:08:59.847Z,3.97
2023-03-29T07:10:01.941Z,3.97
2023-03-29T07:11:03.993Z,3.98
2023-03-29T07:12:05.989Z,4.09
2023-03-29T07:13:08.843Z,4.24
2023-03-29T07:14:10.721Z,4.34
2023-03-29T07:15:12.329Z,4.49
2023-03-29T07:16:14.135Z,4.65
2023-03-29T07:17:16.791Z,4.72
2023-03-29T07:18:18.873Z,4.76
2023-03-29T07:19:22.745Z,4.81
2023-03-29T07:20:25.115Z,4.86
2023-03-29T07:21:27.038Z,4.99
2023-03-29T07:22:28.641Z,4.97
2023-03-29T07:23:30.523Z,4.99
2023-03-29T07:24:32.097Z,5.07
2023-03-29T07:25:34.387Z,5.17
2023-03-29T07:26:35.997Z,5.28
2023-03-29T07:27:37.916Z,5.26
2023-03-29T07:28:39.840Z,5.20
2023-03-29T07:29:41.559Z,5.17
2023-03-29T07:30:43.170Z,5.23
2023-03-29T07:31:46.113Z,5.31
2023-03-29T07:32:48.178Z,5.34
2023-03-29T07:33:52.645Z,5.41
2023-03-29T07:34:54.652Z,5.50
2023-03-29T07:35:57.330Z,5.45
2023-03-29T07:36:59.374Z,5.51
2023-03-29T07:38:01.042Z,5.55
2023-03-29T07:39:03.600Z,5.63
2023-03-29T07:40:12.518Z,5.61
2023-03-29T07:41:14.104Z,5.82
2023-03-29T07:42:15.778Z,5.86
2023-03-29T07:43:18.341Z,5.89
2023-03-29T07:44:21.627Z,5.75
2023-03-29T07:45:26.493Z,5.82
2023-03-29T07:46:29.476Z,5.88
2023-03-29T07:47:31.539Z,5.85
2023-03-29T07:48:33.942Z,5.81
2023-03-29T07:49:35.605Z,5.73
2023-03-29T07:50:37.197Z,5.71
2023-03-29T07:51:38.953Z,5.82
2023-03-29T07:52:40.962Z,5.81
2023-03-29T07:53:43.077Z,5.78
2023-03-29T07:54:44.664Z,5.89
2023-03-29T07:55:49.842Z,5.91
2023-03-29T07:56:51.535Z,5.89
2023-03-29T07:57:53.671Z,5.91
2023-03-29T07:58:55.283Z,5.82
2023-03-29T07:59:57.012Z,5.96
2023-03-29T08:01:00.425Z,5.98
2023-03-29T08:02:02.475Z,5.99
2023-03-29T08:03:04.352Z,5.98
2023-03-29T08:04:06.135Z,6.05
2023-03-29T08:05:08.282Z,6.12
2023-03-29T08:06:10.064Z,6.13
2023-03-29T08:07:12.624Z,6.16
2023-03-29T08:08:14.317Z,6.27
2023-03-29T08:09:16.436Z,6.23
2023-03-29T08:10:19.220Z,6.19
2023-03-29T08:11:21.100Z,6.29
2023-03-29T08:12:24.982Z,6.27
2023-03-29T08:13:26.803Z,6.26
2023-03-29T08:14:28.866Z,6.26
2023-03-29T08:15:30.691Z,6.30
2023-03-29T08:16:32.616Z,6.40
2023-03-29T08:17:35.389Z,6.53
2023-03-29T08:18:37.028Z,6.58
2023-03-29T08:19:38.625Z,6.58
2023-03-29T08:20:40.310Z,6.68
2023-03-29T08:21:41.935Z,6.80
2023-03-29T08:22:43.629Z,6.71
2023-03-29T08:23:45.308Z,6.48
2023-03-29T08:24:47.096Z,6.44
2023-03-29T08:25:48.740Z,6.41
2023-03-29T08:26:50.494Z,6.43
2023-03-29T08:27:52.143Z,6.53
2023-03-29T08:28:53.783Z,6.46
2023-03-29T08:29:55.494Z,6.63
2023-03-29T08:30:57.273Z,6.50
2023-03-29T08:31:58.997Z,6.73
2023-03-29T08:33:01.328Z,6.80
2023-03-29T08:34:03.275Z,6.85
2023-03-29T08:35:06.757Z,6.91
2023-03-29T08:36:08.813Z,6.97
2023-03-29T08:37:11.119Z,6.98
2023-03-29T08:38:12.779Z,6.99
2023-03-29T08:39:14.474Z,6.98
2023-03-29T08:40:24.386Z,7.07
2023-03-29T08:41:41.121Z,7.16
2023-03-29T08:42:58.212Z,7.07
2023-03-29T08:44:17.898Z,6.99
2023-03-29T08:45:45.673Z,6.99
2023-03-29T08:46:49.754Z,7.07
2023-03-29T08:47:57.374Z,7.15
2023-03-29T08:49:03.745Z,7.25
2023-03-29T08:50:05.704Z,7.29
2023-03-29T08:51:31.789Z,7.28
2023-03-29T08:52:40.477Z,7.20
2023-03-29T08:53:45.258Z,7.16
2023-03-29T08:54:47.398Z,7.19
2023-03-29T08:55:49.279Z,7.15
2023-03-29T08:56:51.426Z,7.19
2023-03-29T08:57:53.196Z,7.19
2023-03-29T08:58:55.370Z,7.15
2023-03-29T08:59:58.568Z,7.11
2023-03-29T09:01:01.095Z,7.04
2023-03-29T09:02:04.842Z,7.01
2023-03-29T09:03:15.993Z,7.11
2023-03-29T09:04:20.216Z,7.15
2023-03-29T09:05:28.167Z,7.16
2023-03-29T09:06:29.817Z,7.19
2023-03-29T09:07:31.435Z,7.20
2023-03-29T09:08:35.034Z,7.25
2023-03-29T09:09:37.746Z,7.26
2023-03-29T09:11:02.681Z,7.32
2023-03-29T09:12:07.395Z,7.35
2023-03-29T09:13:19.953Z,7.38
2023-03-29T09:14:58.802Z,7.32
2023-03-29T09:16:09.663Z,7.43
2023-03-29T09:17:39.090Z,7.58
2023-03-29T09:18:48.595Z,7.65
2023-03-29T09:20:27.922Z,7.76
2023-03-29T09:21:46.769Z,7.84
2023-03-29T09:22:57.758Z,7.84
2023-03-29T09:24:04.566Z,7.90
2023-03-29T09:25:25.926Z,7.87
2023-03-29T09:26:50.443Z,7.89
2023-03-29T09:28:01.514Z,7.73
2023-03-29T09:29:41.431Z,7.84
2023-03-29T09:31:02.642Z,7.95
2023-03-29T09:32:06.781Z,8.00
2023-03-29T09:33:17.460Z,8.01
2023-03-29T09:34:31.913Z,8.02
2023-03-29T09:35:43.815Z,7.98
2023-03-29T09:36:52.528Z,7.97
2023-03-29T09:37:54.617Z,7.97
2023-03-29T09:38:56.414Z,7.91
2023-03-29T09:39:58.201Z,7.91
2023-03-29T09:41:04.736Z,7.97
2023-03-29T09:42:11.977Z,8.05
2023-03-29T09:43:15.929Z,8.11
2023-03-29T09:44:31.580Z,8.04
2023-03-29T09:45:38.587Z,8.18
2023-03-29T09:46:53.870Z,8.27
2023-03-29T09:48:00.369Z,8.30
2023-03-29T09:49:02.212Z,8.37
2023-03-29T09:50:35.350Z,8.37
2023-03-29T09:51:36.948Z,8.38
2023-03-29T09:52:38.546Z,8.37
2023-03-29T09:53:40.361Z,8.41
2023-03-29T09:54:42.011Z,8.42
2023-03-29T09:55:43.706Z,8.46
2023-03-29T09:56:45.583Z,8.42
2023-03-29T09:57:47.338Z,8.41
2023-03-29T09:58:48.964Z,8.40
2023-03-29T09:59:51.395Z,8.38
2023-03-29T10:00:53.221Z,8.40
2023-03-29T10:01:55.276Z,8.38
2023-03-29T10:02:57.895Z,8.41
2023-03-29T10:03:59.941Z,8.34
2023-03-29T10:05:04.592Z,8.31
2023-03-29T10:06:07.221Z,8.27
2023-03-29T10:07:19.155Z,8.22
2023-03-29T10:08:27.076Z,8.27
2023-03-29T10:09:29.096Z,8.37
2023-03-29T10:10:32.539Z,8.38
2023-03-29T10:11:37.124Z,8.42
2023-03-29T10:12:38.741Z,8.55
2023-03-29T10:13:44.800Z,8.61
2023-03-29T10:14:49.466Z,8.63
2023-03-29T10:16:19.999Z,8.75
2023-03-29T10:17:25.958Z,8.73
2023-03-29T10:18:27.740Z,8.75
2023-03-29T10:19:33.048Z,8.82
2023-03-29T10:20:36.290Z,8.85
2023-03-29T10:21:37.881Z,8.87
2023-03-29T10:22:41.216Z,8.89
2023-03-29T10:23:43.025Z,8.85
2023-03-29T10:24:52.210Z,8.87
2023-03-29T10:25:53.819Z,8.92
2023-03-29T10:26:58.370Z,8.90
2023-03-29T10:28:06.148Z,8.90
2023-03-29T10:29:08.357Z,9.02
2023-03-29T10:30:23.183Z,8.95
2023-03-29T10:31:24.810Z,8.97
2023-03-29T10:32:36.817Z,8.96
2023-03-29T10:33:38.552Z,8.96
2023-03-29T10:34:40.176Z,9.00
2023-03-29T10:35:42.112Z,8.96
2023-03-29T10:37:01.262Z,8.99
2023-03-29T10:38:04.584Z,8.93
2023-03-29T10:39:06.501Z,8.79
2023-03-29T10:40:22.566Z,8.76
2023-03-29T10:41:24.289Z,8.76
2023-03-29T10:42:26.189Z,8.75
2023-03-29T10:43:32.809Z,8.77
2023-03-29T10:44:37.748Z,8.76
2023-03-29T10:45:39.542Z,8.82
2023-03-29T10:46:42.536Z,8.83
2023-03-29T10:47:45.429Z,8.77
2023-03-29T10:48:49.408Z,8.69
2023-03-29T10:49:58.906Z,8.66
2023-03-29T10:51:01.370Z,8.62
2023-03-29T10:52:04.364Z,8.61
2023-03-29T10:53:26.383Z,8.65
2023-03-29T10:54:28.588Z,8.66
2023-03-29T10:55:37.672Z,8.63
2023-03-29T10:56:41.457Z,8.69
2023-03-29T10:57:57.689Z,8.71
2023-03-29T10:59:17.468Z,8.72
2023-03-29T11:00:23.470Z,8.68
2023-03-29T11:01:58.457Z,8.61
2023-03-29T11:03:22.778Z,8.62
2023-03-29T11:04:49.071Z,8.73
2023-03-29T11:06:07.848Z,8.76
2023-03-29T11:07:22.764Z,8.79
2023-03-29T11:08:31.872Z,8.80
2023-03-29T11:10:00.298Z,8.77
2023-03-29T11:11:05.667Z,8.85
2023-03-29T11:12:16.165Z,8.92
2023-03-29T11:13:35.134Z,8.90
2023-03-29T11:14:45.707Z,8.90
2023-03-29T11:15:56.497Z,8.95
2023-03-29T11:17:16.937Z,9.00
2023-03-29T11:18:44.120Z,9.10
2023-03-29T11:19:56.667Z,9.17
2023-03-29T11:21:10.737Z,9.16
2023-03-29T11:22:31.267Z,9.10
2023-03-29T11:23:46.153Z,9.12
2023-03-29T11:25:08.916Z,9.13
2023-03-29T11:26:32.325Z,9.06
2023-03-29T11:27:57.805Z,9.13
2023-03-29T11:29:21.738Z,9.16
2023-03-29T11:30:29.146Z,9.23
2023-03-29T11:31:39.412Z,9.31
2023-03-29T11:33:18.333Z,9.36
2023-03-29T11:34:29.853Z,9.41
2023-03-29T11:35:47.356Z,9.44
2023-03-29T11:36:51.890Z,9.37
2023-03-29T11:37:53.989Z,9.37
2023-03-29T11:39:16.113Z,9.40
2023-03-29T11:40:39.332Z,9.48
2023-03-29T11:41:43.290Z,9.62
2023-03-29T11:42:46.389Z,9.68
2023-03-29T11:44:17.776Z,9.79
2023-03-29T11:45:26.298Z,9.85
2023-03-29T11:46:33.998Z,9.88
2023-03-29T11:47:37.376Z,9.91
2023-03-29T11:48:44.113Z,9.89
2023-03-29T11:49:53.154Z,9.99
2023-03-29T11:51:16.971Z,10.05
2023-03-29T11:52:24.490Z,10.13
2023-03-29T11:53:37.804Z,10.13
2023-03-29T11:54:45.785Z,10.22
2023-03-29T11:55:48.227Z,10.20
2023-03-29T11:57:27.549Z,10.12
2023-03-29T11:58:36.642Z,10.09
2023-03-29T11:59:43.417Z,10.06
2023-03-29T12:00:55.373Z,10.06
2023-03-29T12:02:12.798Z,10.06
2023-03-29T12:03:28.549Z,9.95
2023-03-29T12:04:32.778Z,10.02
2023-03-29T12:05:50.407Z,10.03
2023-03-29T12:07:24.176Z,9.99
2023-03-29T12:08:30.693Z,10.08
2023-03-29T12:09:50.524Z,10.13
2023-03-29T12:11:04.508Z,10.09
2023-03-29T12:12:10.081Z,10.06
2023-03-29T12:13:14.497Z,9.95
2023-03-29T12:14:22.924Z,9.89
2023-03-29T12:15:26.364Z,9.84
2023-03-29T12:16:34.149Z,9.75
2023-03-29T12:17:42.108Z,9.77
2023-03-29T12:18:46.278Z,9.84
2023-03-29T12:19:59.212Z,9.75
2023-03-29T12:21:03.222Z,9.88
2023-03-29T12:22:07.912Z,9.89
2023-03-29T12:23:12.929Z,9.84
2023-03-29T12:24:16.171Z,9.82
2023-03-29T12:25:22.763Z,9.81
2023-03-29T12:26:43.788Z,9.81
2023-03-29T12:28:08.945Z,9.84
2023-03-29T12:29:21.041Z,9.87
2023-03-29T12:31:04.270Z,9.88
2023-03-29T12:32:06.311Z,9.98
2023-03-29T12:33:19.735Z,9.99
2023-03-29T12:34:51.961Z,10.01
2023-03-29T12:36:15.021Z,10.12
2023-03-29T12:37:40.692Z,10.15
2023-03-29T12:38:42.854Z,10.10
2023-03-29T12:39:44.553Z,10.12
2023-03-29T12:40:47.606Z,10.05
2023-03-29T12:41:51.820Z,10.08
2023-03-29T12:42:56.931Z,10.08
2023-03-29T12:44:02.057Z,10.06
2023-03-29T12:45:03.906Z,10.12
2023-03-29T12:46:09.544Z,10.20
2023-03-29T12:47:21.678Z,10.32
2023-03-29T12:48:27.674Z,10.33
2023-03-29T12:49:33.810Z,10.46
2023-03-29T12:50:54.782Z,10.50
2023-03-29T12:51:57.513Z,10.57
2023-03-29T12:53:05.796Z,10.60
2023-03-29T12:54:10.321Z,10.64
2023-03-29T12:55:32.297Z,10.69
2023-03-29T12:56:41.440Z,10.70
2023-03-29T12:58:07.302Z,10.66
2023-03-29T12:59:11.669Z,10.67
2023-03-29T13:00:23.143Z,10.53
2023-03-29T13:01:28.910Z,10.59
2023-03-29T13:02:35.382Z,10.59
2023-03-29T13:03:40.364Z,10.57
2023-03-29T13:04:58.238Z,10.59
2023-03-29T13:06:02.616Z,10.64
2023-03-29T13:07:05.817Z,10.60
2023-03-29T13:08:26.425Z,10.57
2023-03-29T13:09:47.801Z,10.60
2023-03-29T13:10:53.589Z,10.59
2023-03-29T13:12:04.196Z,10.55
2023-03-29T13:13:17.376Z,10.69
2023-03-29T13:14:20.295Z,10.81
2023-03-29T13:15:23.670Z,10.84
2023-03-29T13:16:33.216Z,10.80
2023-03-29T13:17:48.151Z,10.89
2023-03-29T13:19:03.650Z,10.85
2023-03-29T13:20:14.585Z,10.87
2023-03-29T13:21:23.749Z,10.85
2023-03-29T13:22:43.951Z,10.77
2023-03-29T13:24:21.035Z,10.71
2023-03-29T13:25:46.986Z,10.63
2023-03-29T13:26:59.687Z,10.69
2023-03-29T13:28:20.030Z,10.74
2023-03-29T13:29:39.930Z,10.79
2023-03-29T13:31:11.709Z,10.84
2023-03-29T13:32:22.266Z,10.83
2023-03-29T13:33:48.786Z,10.77
2023-03-29T13:35:02.265Z,10.74
2023-03-29T13:36:41.751Z,10.69
2023-03-29T13:37:55.913Z,10.63
2023-03-29T13:39:01.684Z,10.61
2023-03-29T13:40:23.449Z,10.61
2023-03-29T13:41:33.518Z,10.60
2023-03-29T13:42:35.536Z,10.57
2023-03-29T13:43:49.821Z,10.57
2023-03-29T13:44:52.149Z,10.56
2023-03-29T13:45:56.683Z,10.52
2023-03-29T13:47:32.462Z,10.46
2023-03-29T13:48:37.705Z,10.40
2023-03-29T13:49:39.476Z,10.36
2023-03-29T13:50:52.415Z,10.32
2023-03-29T13:51:54.001Z,10.39
2023-03-29T13:53:20.862Z,10.42
2023-03-29T13:54:27.284Z,10.43
2023-03-29T13:55:34.415Z,10.48
2023-03-29T13:57:02.017Z,10.46
2023-03-29T13:58:15.990Z,10.52
2023-03-29T13:59:23.938Z,10.53
2023-03-29T14:00:41.202Z,10.57
2023-03-29T14:01:50.656Z,10.55
2023-03-29T14:02:55.359Z,10.60
2023-03-29T14:03:57.320Z,10.64
2023-03-29T14:05:00.062Z,10.73
2023-03-29T14:06:02.221Z,10.71
2023-03-29T14:07:04.109Z,10.79
2023-03-29T14:08:26.781Z,10.70
2023-03-29T14:09:32.545Z,10.64
2023-03-29T14:10:44.232Z,10.53
2023-03-29T14:11:45.933Z,10.50
2023-03-29T14:12:47.575Z,10.43
2023-03-29T14:13:52.733Z,10.38
2023-03-29T14:14:59.193Z,10.32
2023-03-29T14:16:11.369Z,10.29
2023-03-29T14:17:21.190Z,10.30
2023-03-29T14:18:23.750Z,10.28
2023-03-29T14:19:36.229Z,10.29
2023-03-29T14:20:37.954Z,10.25
2023-03-29T14:21:40.974Z,10.29
2023-03-29T14:22:42.653Z,10.32
2023-03-29T14:23:46.665Z,10.38
2023-03-29T14:24:52.122Z,10.40
2023-03-29T14:25:53.832Z,10.39
2023-03-29T14:26:55.490Z,10.43
2023-03-29T14:27:57.103Z,10.45
2023-03-29T14:29:01.248Z,10.46
2023-03-29T14:30:17.493Z,10.48
2023-03-29T14:31:26.349Z,10.49
2023-03-29T14:32:29.423Z,10.53
2023-03-29T14:33:34.607Z,10.56
2023-03-29T14:34:36.347Z,10.61